Terminal Aerodrome Forecast
Issued by NWS Jackson, MS

Home | Current Version | Previous Version | Text Only | Print | Product List | Glossary On
Versions: 1 2 3 4 5 6 7 8 9 10 11 12 13 14 15 16
000
FTUS44 KJAN 160500
TAFMEI
TAF
KMEI 160520Z 1606/1706 00000KT P6SM BKN200
     FM161400 01003KT P6SM SCT050 BKN150
     FM161900 36006KT P6SM VCTS BKN050CB BKN170
     FM170000 01003KT P6SM OVC250=

USA.gov is the U.S. government's official web portal to all federal, state and local government web resources and services.